PGT60NC EDDS-LTBJ
Flight info
| Callsign | PGT60NC |
|---|---|
| Flight time | 2h 22m |
| Altitude | 35000 |
| Route | ABTAL4B ABTAL L173 RIXED Y161 RIDAR Z98 MIQ L605 ESEGA DCT RADLY DCT BEDOX DCT LURID DCT DOBOT DCT YULHU DCT VABEK UL603 OLOTA DCT RUGAS DCT PEREN DCT LMO UN127 RIKSO |
| Aircraft | A21N/M-SDE2E3FGHIRWXY/LB1 |
Departure
| Time | 2026-05-07 16:48 |
|---|---|
| Airport | Stuttgart Airport (EDDS) |
Arrival
| Time | 2026-05-07 19:10 |
|---|---|
| Airport | Adnan Menderes International Airport (LTBJ) |
| Time | Latitude | Longitude | Altitude | Speed | Heading |
|---|---|---|---|---|---|
| 2026-05-07 16:06 | 48.69059 | 9.19974 | 1312 ft | 0 kts | 343° |
| 2026-05-07 16:34 | 48.69052 | 9.19977 | 1312 ft | 4 kts | 343° |
| 2026-05-07 16:35 | 48.69026 | 9.19988 | 1312 ft | 4 kts | 344° |
| 2026-05-07 16:35 | 48.69005 | 9.19997 | 1310 ft | 4 kts | 345° |
| 2026-05-07 16:35 | 48.68980 | 9.20000 | 1309 ft | 4 kts | 18° |
| 2026-05-07 16:35 | 48.68959 | 9.19978 | 1308 ft | 4 kts | 54° |
| 2026-05-07 16:36 | 48.68952 | 9.19961 | 1308 ft | 1 kts | 58° |
| 2026-05-07 16:38 | 48.68953 | 9.19963 | 1308 ft | 1 kts | 58° |
| 2026-05-07 16:38 | 48.68961 | 9.19983 | 1308 ft | 3 kts | 58° |
| 2026-05-07 16:38 | 48.68977 | 9.20024 | 1308 ft | 6 kts | 58° |
| 2026-05-07 16:38 | 48.68997 | 9.20089 | 1307 ft | 8 kts | 75° |
| 2026-05-07 16:39 | 48.69013 | 9.20178 | 1304 ft | 10 kts | 74° |
| 2026-05-07 16:39 | 48.69032 | 9.20281 | 1300 ft | 11 kts | 74° |
| 2026-05-07 16:39 | 48.69055 | 9.20399 | 1296 ft | 12 kts | 73° |
| 2026-05-07 16:39 | 48.69033 | 9.20516 | 1290 ft | 13 kts | 134° |
| 2026-05-07 16:40 | 48.68970 | 9.20621 | 1287 ft | 14 kts | 118° |
| 2026-05-07 16:40 | 48.68977 | 9.20766 | 1284 ft | 15 kts | 73° |
| 2026-05-07 16:40 | 48.69006 | 9.20918 | 1279 ft | 15 kts | 73° |
| 2026-05-07 16:40 | 48.69037 | 9.21077 | 1275 ft | 16 kts | 73° |
| 2026-05-07 16:41 | 48.69068 | 9.21245 | 1271 ft | 17 kts | 73° |
| 2026-05-07 16:41 | 48.69102 | 9.21420 | 1268 ft | 18 kts | 74° |
| 2026-05-07 16:41 | 48.69135 | 9.21602 | 1267 ft | 18 kts | 74° |
| 2026-05-07 16:41 | 48.69170 | 9.21790 | 1261 ft | 19 kts | 74° |
| 2026-05-07 16:42 | 48.69207 | 9.21984 | 1265 ft | 19 kts | 73° |
| 2026-05-07 16:42 | 48.69245 | 9.22184 | 1256 ft | 20 kts | 73° |
| 2026-05-07 16:42 | 48.69285 | 9.22389 | 1249 ft | 21 kts | 73° |
| 2026-05-07 16:42 | 48.69325 | 9.22601 | 1245 ft | 21 kts | 74° |
| 2026-05-07 16:43 | 48.69367 | 9.22820 | 1242 ft | 22 kts | 74° |
| 2026-05-07 16:43 | 48.69409 | 9.23045 | 1230 ft | 23 kts | 74° |
| 2026-05-07 16:43 | 48.69453 | 9.23276 | 1225 ft | 23 kts | 74° |
| 2026-05-07 16:43 | 48.69498 | 9.23514 | 1220 ft | 24 kts | 74° |
| 2026-05-07 16:44 | 48.69545 | 9.23758 | 1215 ft | 25 kts | 74° |
| 2026-05-07 16:44 | 48.69592 | 9.24007 | 1210 ft | 22 kts | 73° |
| 2026-05-07 16:44 | 48.69605 | 9.24171 | 1205 ft | 15 kts | 112° |
| 2026-05-07 16:44 | 48.69543 | 9.24299 | 1198 ft | 14 kts | 153° |
| 2026-05-07 16:45 | 48.69499 | 9.24317 | 1196 ft | 0 kts | 162° |
| 2026-05-07 16:46 | 48.69497 | 9.24317 | 1196 ft | 1 kts | 162° |
| 2026-05-07 16:46 | 48.69483 | 9.24324 | 1195 ft | 3 kts | 162° |
| 2026-05-07 16:46 | 48.69449 | 9.24340 | 1195 ft | 7 kts | 163° |
| 2026-05-07 16:46 | 48.69397 | 9.24337 | 1196 ft | 10 kts | 244° |
| 2026-05-07 16:47 | 48.69361 | 9.24167 | 1199 ft | 38 kts | 254° |
| 2026-05-07 16:47 | 48.69224 | 9.23435 | 1214 ft | 103 kts | 254° |
| 2026-05-07 16:47 | 48.68976 | 9.22132 | 1243 ft | 148 kts | 253° |
| 2026-05-07 16:47 | 48.68658 | 9.20501 | 1522 ft | 163 kts | 255° |
| 2026-05-07 16:48 | 48.68341 | 9.18829 | 2121 ft | 167 kts | 259° |
| 2026-05-07 16:48 | 48.68026 | 9.17090 | 2649 ft | 177 kts | 257° |
| 2026-05-07 16:48 | 48.67659 | 9.15231 | 3168 ft | 191 kts | 256° |
| 2026-05-07 16:48 | 48.67263 | 9.13253 | 3692 ft | 206 kts | 255° |
| 2026-05-07 16:49 | 48.66830 | 9.11103 | 4223 ft | 223 kts | 255° |
| 2026-05-07 16:49 | 48.66033 | 9.09009 | 4711 ft | 241 kts | 223° |
| 2026-05-07 16:49 | 48.64494 | 9.07936 | 5472 ft | 250 kts | 187° |
| 2026-05-07 16:49 | 48.62789 | 9.08362 | 6332 ft | 255 kts | 154° |
| 2026-05-07 16:50 | 48.61466 | 9.10149 | 7130 ft | 261 kts | 122° |
| 2026-05-07 16:50 | 48.60963 | 9.12789 | 7913 ft | 266 kts | 91° |
| 2026-05-07 16:50 | 48.61112 | 9.15645 | 8471 ft | 281 kts | 83° |
| 2026-05-07 16:50 | 48.61354 | 9.18666 | 9028 ft | 294 kts | 84° |
| 2026-05-07 16:51 | 48.61568 | 9.21778 | 9799 ft | 300 kts | 85° |
| 2026-05-07 16:51 | 48.61778 | 9.24970 | 10399 ft | 313 kts | 82° |
| 2026-05-07 16:51 | 48.62397 | 9.28230 | 10742 ft | 333 kts | 68° |
| 2026-05-07 16:51 | 48.63349 | 9.31538 | 11057 ft | 353 kts | 65° |
| 2026-05-07 16:52 | 48.64380 | 9.35015 | 11340 ft | 372 kts | 65° |
| 2026-05-07 16:52 | 48.65423 | 9.38611 | 11764 ft | 382 kts | 66° |
| 2026-05-07 16:52 | 48.66496 | 9.42371 | 12441 ft | 386 kts | 66° |
| 2026-05-07 16:52 | 48.67545 | 9.46073 | 13141 ft | 389 kts | 66° |
| 2026-05-07 16:53 | 48.68607 | 9.49866 | 13835 ft | 392 kts | 66° |
| 2026-05-07 16:53 | 48.69676 | 9.53693 | 14448 ft | 395 kts | 66° |
| 2026-05-07 16:53 | 48.70752 | 9.57539 | 15022 ft | 398 kts | 66° |
| 2026-05-07 16:53 | 48.71838 | 9.61417 | 15555 ft | 402 kts | 66° |
| 2026-05-07 16:54 | 48.72933 | 9.65341 | 16050 ft | 407 kts | 66° |
| 2026-05-07 16:54 | 48.74044 | 9.69325 | 16522 ft | 412 kts | 66° |
| 2026-05-07 16:54 | 48.75163 | 9.73350 | 17005 ft | 416 kts | 66° |
| 2026-05-07 16:54 | 48.76288 | 9.77409 | 17501 ft | 419 kts | 66° |
| 2026-05-07 16:55 | 48.77423 | 9.81502 | 18000 ft | 423 kts | 66° |
| 2026-05-07 16:55 | 48.78569 | 9.85639 | 18458 ft | 427 kts | 66° |
| 2026-05-07 16:55 | 48.79722 | 9.89805 | 18873 ft | 429 kts | 66° |
| 2026-05-07 16:55 | 48.80864 | 9.93939 | 19277 ft | 431 kts | 66° |
| 2026-05-07 16:56 | 48.82020 | 9.98142 | 19673 ft | 433 kts | 66° |
| 2026-05-07 16:56 | 48.83183 | 10.02376 | 20074 ft | 435 kts | 66° |
| 2026-05-07 16:56 | 48.85043 | 10.11173 | 20823 ft | 441 kts | 80° |
| 2026-05-07 16:57 | 48.85165 | 10.15832 | 21186 ft | 444 kts | 93° |
| 2026-05-07 16:57 | 48.84828 | 10.20505 | 21577 ft | 446 kts | 98° |
| 2026-05-07 16:57 | 48.84387 | 10.25182 | 21950 ft | 449 kts | 98° |
| 2026-05-07 16:57 | 48.83956 | 10.29890 | 22333 ft | 451 kts | 97° |
| 2026-05-07 16:58 | 48.83522 | 10.34623 | 22713 ft | 453 kts | 100° |
| 2026-05-07 16:58 | 48.82738 | 10.39257 | 23090 ft | 455 kts | 110° |
| 2026-05-07 16:58 | 48.81398 | 10.43603 | 23456 ft | 455 kts | 122° |
| 2026-05-07 16:58 | 48.79530 | 10.47471 | 23776 ft | 455 kts | 133° |
| 2026-05-07 16:59 | 48.77358 | 10.50989 | 24111 ft | 457 kts | 136° |
| 2026-05-07 16:59 | 48.75136 | 10.54462 | 24421 ft | 459 kts | 135° |
| 2026-05-07 16:59 | 48.72916 | 10.57956 | 24686 ft | 462 kts | 135° |
| 2026-05-07 16:59 | 48.70722 | 10.61432 | 24934 ft | 464 kts | 135° |
| 2026-05-07 17:00 | 48.68492 | 10.64981 | 25163 ft | 465 kts | 135° |
| 2026-05-07 17:00 | 48.66258 | 10.68539 | 25388 ft | 467 kts | 135° |
| 2026-05-07 17:00 | 48.64017 | 10.72104 | 25620 ft | 468 kts | 135° |
| 2026-05-07 17:00 | 48.61868 | 10.75822 | 25845 ft | 470 kts | 128° |
| 2026-05-07 17:01 | 48.60154 | 10.80049 | 26105 ft | 474 kts | 116° |
| 2026-05-07 17:01 | 48.59023 | 10.84728 | 26458 ft | 475 kts | 104° |
| 2026-05-07 17:01 | 48.58522 | 10.89668 | 26813 ft | 476 kts | 93° |
| 2026-05-07 17:01 | 48.58386 | 10.94680 | 27141 ft | 478 kts | 91° |
| 2026-05-07 17:02 | 48.58289 | 10.99635 | 27543 ft | 477 kts | 91° |
| 2026-05-07 17:02 | 48.58175 | 11.04649 | 27977 ft | 476 kts | 91° |
| 2026-05-07 17:02 | 48.58043 | 11.09649 | 28409 ft | 474 kts | 91° |
| 2026-05-07 17:02 | 48.57904 | 11.14622 | 28824 ft | 473 kts | 91° |
| 2026-05-07 17:03 | 48.57806 | 11.19576 | 29236 ft | 472 kts | 90° |
| 2026-05-07 17:03 | 48.57725 | 11.24519 | 29638 ft | 471 kts | 90° |
| 2026-05-07 17:03 | 48.57640 | 11.29464 | 30041 ft | 469 kts | 90° |
| 2026-05-07 17:03 | 48.57548 | 11.34400 | 30361 ft | 469 kts | 91° |
| 2026-05-07 17:04 | 48.57453 | 11.39329 | 30612 ft | 470 kts | 91° |
| 2026-05-07 17:04 | 48.57353 | 11.44217 | 30883 ft | 471 kts | 91° |
| 2026-05-07 17:04 | 48.57251 | 11.49161 | 31170 ft | 471 kts | 91° |
| 2026-05-07 17:04 | 48.57147 | 11.54105 | 31463 ft | 471 kts | 91° |
| 2026-05-07 17:05 | 48.56991 | 11.59058 | 31736 ft | 471 kts | 96° |
| 2026-05-07 17:05 | 48.56446 | 11.63934 | 32006 ft | 471 kts | 102° |
| 2026-05-07 17:05 | 48.55743 | 11.68762 | 32289 ft | 471 kts | 103° |
| 2026-05-07 17:05 | 48.55025 | 11.73583 | 32571 ft | 470 kts | 103° |
| 2026-05-07 17:06 | 48.54311 | 11.78412 | 32826 ft | 471 kts | 103° |
| 2026-05-07 17:06 | 48.53600 | 11.83236 | 33034 ft | 471 kts | 103° |
| 2026-05-07 17:06 | 48.52191 | 11.92789 | 33068 ft | 469 kts | 104° |
| 2026-05-07 17:07 | 48.50764 | 12.02393 | 33046 ft | 469 kts | 104° |
| 2026-05-07 17:07 | 48.49327 | 12.12011 | 33038 ft | 470 kts | 104° |
| 2026-05-07 17:08 | 48.47884 | 12.21625 | 33031 ft | 470 kts | 104° |
| 2026-05-07 17:08 | 48.46431 | 12.31233 | 33033 ft | 469 kts | 104° |
| 2026-05-07 17:09 | 48.44986 | 12.40750 | 33029 ft | 469 kts | 104° |
| 2026-05-07 17:09 | 48.43523 | 12.50320 | 33036 ft | 468 kts | 104° |
| 2026-05-07 17:10 | 48.42051 | 12.59890 | 33039 ft | 468 kts | 104° |
| 2026-05-07 17:10 | 48.40581 | 12.69391 | 33038 ft | 468 kts | 104° |
| 2026-05-07 17:11 | 48.39188 | 12.77308 | 33030 ft | 467 kts | 110° |
| 2026-05-07 17:11 | 48.36705 | 12.88023 | 33039 ft | 467 kts | 111° |
| 2026-05-07 17:12 | 48.34897 | 12.95758 | 33035 ft | 467 kts | 111° |
| 2026-05-07 17:12 | 48.32748 | 13.04963 | 33033 ft | 471 kts | 111° |
| 2026-05-07 17:13 | 48.30481 | 13.14204 | 33038 ft | 470 kts | 117° |
| 2026-05-07 17:13 | 48.28857 | 13.18432 | 33034 ft | 466 kts | 129° |
| 2026-05-07 17:13 | 48.26722 | 13.22062 | 33038 ft | 462 kts | 140° |
| 2026-05-07 17:14 | 48.21829 | 13.28287 | 33047 ft | 460 kts | 143° |
| 2026-05-07 17:14 | 48.16917 | 13.34455 | 33030 ft | 460 kts | 143° |
| 2026-05-07 17:15 | 48.12031 | 13.40633 | 33023 ft | 458 kts | 143° |
| 2026-05-07 17:15 | 48.07168 | 13.46802 | 33021 ft | 458 kts | 143° |
| 2026-05-07 17:16 | 48.02301 | 13.52964 | 33032 ft | 458 kts | 143° |
| 2026-05-07 17:16 | 47.97432 | 13.59113 | 33025 ft | 458 kts | 143° |
| 2026-05-07 17:17 | 47.92591 | 13.65213 | 33024 ft | 458 kts | 143° |
| 2026-05-07 17:17 | 47.87725 | 13.71322 | 33015 ft | 456 kts | 144° |
| 2026-05-07 17:18 | 47.82865 | 13.77411 | 33018 ft | 456 kts | 144° |
| 2026-05-07 17:18 | 47.77985 | 13.83508 | 33018 ft | 458 kts | 144° |
| 2026-05-07 17:19 | 47.73104 | 13.89592 | 33023 ft | 458 kts | 144° |
| 2026-05-07 17:19 | 47.68223 | 13.95660 | 33029 ft | 458 kts | 144° |
| 2026-05-07 17:20 | 47.63372 | 14.01676 | 33024 ft | 455 kts | 144° |
| 2026-05-07 17:20 | 47.58509 | 14.07698 | 33040 ft | 456 kts | 144° |
| 2026-05-07 17:21 | 47.53622 | 14.13748 | 33027 ft | 459 kts | 144° |
| 2026-05-07 17:21 | 47.48709 | 14.19800 | 33039 ft | 459 kts | 144° |
| 2026-05-07 17:22 | 47.43797 | 14.25832 | 33043 ft | 459 kts | 144° |
| 2026-05-07 17:22 | 47.38886 | 14.31846 | 33038 ft | 456 kts | 144° |
| 2026-05-07 17:23 | 47.33992 | 14.37821 | 33041 ft | 456 kts | 144° |
| 2026-05-07 17:23 | 47.29121 | 14.43756 | 33033 ft | 458 kts | 145° |
| 2026-05-07 17:24 | 47.24198 | 14.49741 | 33046 ft | 458 kts | 145° |
| 2026-05-07 17:24 | 47.19271 | 14.55719 | 33048 ft | 458 kts | 145° |
| 2026-05-07 17:25 | 47.14357 | 14.61673 | 33039 ft | 459 kts | 146° |
| 2026-05-07 17:25 | 47.09355 | 14.67683 | 32986 ft | 467 kts | 146° |
| 2026-05-07 17:26 | 47.04318 | 14.73734 | 32974 ft | 471 kts | 146° |
| 2026-05-07 17:26 | 46.99243 | 14.79828 | 32957 ft | 472 kts | 146° |
| 2026-05-07 17:27 | 46.94193 | 14.85878 | 32967 ft | 472 kts | 146° |
| 2026-05-07 17:27 | 46.89081 | 14.91987 | 32936 ft | 470 kts | 146° |
| 2026-05-07 17:28 | 46.84044 | 14.97989 | 32945 ft | 470 kts | 146° |
| 2026-05-07 17:28 | 46.78962 | 15.04025 | 32912 ft | 473 kts | 147° |
| 2026-05-07 17:29 | 46.73842 | 15.10095 | 32930 ft | 474 kts | 147° |
| 2026-05-07 17:29 | 46.68715 | 15.16161 | 32922 ft | 474 kts | 147° |
| 2026-05-07 17:30 | 46.63731 | 15.22465 | 32915 ft | 478 kts | 139° |
| 2026-05-07 17:30 | 46.59319 | 15.29657 | 32926 ft | 480 kts | 137° |
| 2026-05-07 17:31 | 46.54895 | 15.36912 | 32912 ft | 480 kts | 138° |
| 2026-05-07 17:31 | 46.50423 | 15.44200 | 32926 ft | 484 kts | 139° |
| 2026-05-07 17:32 | 46.45941 | 15.51478 | 32918 ft | 483 kts | 139° |
| 2026-05-07 17:32 | 46.41462 | 15.58728 | 32932 ft | 483 kts | 139° |
| 2026-05-07 17:33 | 46.36974 | 15.65976 | 32943 ft | 483 kts | 139° |
| 2026-05-07 17:33 | 46.32486 | 15.73204 | 32942 ft | 483 kts | 139° |
| 2026-05-07 17:34 | 46.27991 | 15.80424 | 32934 ft | 483 kts | 139° |
| 2026-05-07 17:34 | 46.23326 | 15.87399 | 32957 ft | 481 kts | 142° |
| 2026-05-07 17:35 | 46.18540 | 15.94198 | 32969 ft | 483 kts | 142° |
| 2026-05-07 17:35 | 46.13792 | 16.00950 | 32967 ft | 482 kts | 142° |
| 2026-05-07 17:36 | 46.09000 | 16.07754 | 32943 ft | 482 kts | 142° |
| 2026-05-07 17:36 | 46.04253 | 16.14486 | 32975 ft | 478 kts | 142° |
| 2026-05-07 17:37 | 45.99505 | 16.21191 | 32980 ft | 478 kts | 142° |
| 2026-05-07 17:37 | 45.94759 | 16.27886 | 32989 ft | 478 kts | 142° |
| 2026-05-07 17:38 | 45.90037 | 16.34533 | 32992 ft | 477 kts | 142° |
| 2026-05-07 17:38 | 45.85292 | 16.41191 | 32980 ft | 476 kts | 142° |
| 2026-05-07 17:39 | 45.80547 | 16.47835 | 32991 ft | 476 kts | 142° |
| 2026-05-07 17:39 | 45.75800 | 16.54465 | 32984 ft | 476 kts | 142° |
| 2026-05-07 17:40 | 45.71074 | 16.61054 | 32999 ft | 477 kts | 142° |
| 2026-05-07 17:40 | 45.66311 | 16.67674 | 32982 ft | 476 kts | 142° |
| 2026-05-07 17:41 | 45.61556 | 16.74262 | 32995 ft | 475 kts | 142° |
| 2026-05-07 17:41 | 45.56802 | 16.80830 | 32999 ft | 475 kts | 142° |
| 2026-05-07 17:42 | 45.52038 | 16.87394 | 33004 ft | 475 kts | 142° |
| 2026-05-07 17:42 | 45.47311 | 16.93897 | 33010 ft | 475 kts | 142° |
| 2026-05-07 17:43 | 45.42548 | 17.00437 | 32999 ft | 475 kts | 142° |
| 2026-05-07 17:43 | 45.37777 | 17.06968 | 33008 ft | 475 kts | 142° |
| 2026-05-07 17:44 | 45.33008 | 17.13483 | 33011 ft | 475 kts | 142° |
| 2026-05-07 17:44 | 45.28236 | 17.19986 | 33010 ft | 475 kts | 142° |
| 2026-05-07 17:45 | 45.23460 | 17.26483 | 32993 ft | 476 kts | 142° |
| 2026-05-07 17:45 | 45.18693 | 17.32952 | 33009 ft | 476 kts | 142° |
| 2026-05-07 17:46 | 45.13887 | 17.39448 | 33013 ft | 477 kts | 142° |
| 2026-05-07 17:46 | 45.09190 | 17.46017 | 33017 ft | 478 kts | 141° |
| 2026-05-07 17:47 | 45.04465 | 17.52636 | 33001 ft | 478 kts | 141° |
| 2026-05-07 17:47 | 44.99737 | 17.59248 | 33014 ft | 478 kts | 141° |
| 2026-05-07 17:48 | 44.94995 | 17.65858 | 33019 ft | 478 kts | 141° |
| 2026-05-07 17:48 | 44.90253 | 17.72455 | 33026 ft | 478 kts | 141° |
| 2026-05-07 17:49 | 44.85509 | 17.79043 | 33003 ft | 478 kts | 141° |
| 2026-05-07 17:49 | 44.80767 | 17.85606 | 33017 ft | 477 kts | 141° |
| 2026-05-07 17:50 | 44.76030 | 17.92148 | 33020 ft | 477 kts | 141° |
| 2026-05-07 17:50 | 44.71268 | 17.98672 | 33015 ft | 479 kts | 141° |
| 2026-05-07 17:51 | 44.66491 | 18.05205 | 32996 ft | 479 kts | 141° |
| 2026-05-07 17:51 | 44.61744 | 18.11688 | 33015 ft | 479 kts | 141° |
| 2026-05-07 17:52 | 44.56965 | 18.18199 | 33018 ft | 479 kts | 141° |
| 2026-05-07 17:52 | 44.52178 | 18.24705 | 33022 ft | 478 kts | 141° |
| 2026-05-07 17:53 | 44.47390 | 18.31196 | 32987 ft | 479 kts | 141° |
| 2026-05-07 17:53 | 44.42611 | 18.37654 | 33016 ft | 480 kts | 141° |
| 2026-05-07 17:54 | 44.37799 | 18.44140 | 33023 ft | 480 kts | 141° |
| 2026-05-07 17:54 | 44.32988 | 18.50619 | 33026 ft | 480 kts | 141° |
| 2026-05-07 17:55 | 44.28340 | 18.57364 | 33024 ft | 485 kts | 135° |
| 2026-05-07 17:55 | 44.23988 | 18.64566 | 33029 ft | 485 kts | 135° |
| 2026-05-07 17:56 | 44.19666 | 18.71717 | 33028 ft | 485 kts | 135° |
| 2026-05-07 17:56 | 44.15303 | 18.78905 | 33038 ft | 485 kts | 135° |
| 2026-05-07 17:57 | 44.11670 | 18.84869 | 33036 ft | 485 kts | 135° |
| 2026-05-07 17:57 | 44.07300 | 18.92034 | 33042 ft | 486 kts | 135° |
| 2026-05-07 17:58 | 44.02924 | 18.99194 | 33037 ft | 485 kts | 135° |
| 2026-05-07 17:58 | 43.98547 | 19.06338 | 33047 ft | 485 kts | 135° |
| 2026-05-07 17:59 | 43.94165 | 19.13489 | 33008 ft | 486 kts | 135° |
| 2026-05-07 17:59 | 43.89768 | 19.20633 | 33020 ft | 487 kts | 135° |
| 2026-05-07 18:00 | 43.85379 | 19.27733 | 33053 ft | 488 kts | 135° |
| 2026-05-07 18:00 | 43.80960 | 19.34878 | 33043 ft | 488 kts | 135° |
| 2026-05-07 18:01 | 43.76539 | 19.41999 | 33037 ft | 488 kts | 135° |
| 2026-05-07 18:01 | 43.72105 | 19.49119 | 33048 ft | 488 kts | 135° |
| 2026-05-07 18:02 | 43.65476 | 19.59738 | 33045 ft | 489 kts | 135° |
| 2026-05-07 18:03 | 43.61016 | 19.66847 | 33048 ft | 489 kts | 134° |
| 2026-05-07 18:03 | 43.56567 | 19.73950 | 33047 ft | 489 kts | 134° |
| 2026-05-07 18:04 | 43.52106 | 19.81056 | 33052 ft | 489 kts | 135° |
| 2026-05-07 18:04 | 43.47641 | 19.88129 | 33050 ft | 489 kts | 135° |
| 2026-05-07 18:05 | 43.43207 | 19.95157 | 33058 ft | 489 kts | 135° |
| 2026-05-07 18:05 | 43.38725 | 20.02226 | 33058 ft | 491 kts | 135° |
| 2026-05-07 18:06 | 43.34224 | 20.09305 | 33063 ft | 491 kts | 135° |
| 2026-05-07 18:06 | 43.29721 | 20.16385 | 33062 ft | 491 kts | 135° |
| 2026-05-07 18:07 | 43.25219 | 20.23444 | 33059 ft | 491 kts | 135° |
| 2026-05-07 18:07 | 43.20700 | 20.30473 | 33071 ft | 491 kts | 135° |
| 2026-05-07 18:08 | 43.16212 | 20.37448 | 33081 ft | 491 kts | 135° |
| 2026-05-07 18:08 | 43.11687 | 20.44490 | 33057 ft | 494 kts | 135° |
| 2026-05-07 18:09 | 43.07132 | 20.51554 | 33074 ft | 494 kts | 135° |
| 2026-05-07 18:09 | 43.02577 | 20.58595 | 33081 ft | 494 kts | 135° |
| 2026-05-07 18:10 | 42.97826 | 20.65370 | 33081 ft | 493 kts | 140° |
| 2026-05-07 18:10 | 42.92865 | 20.71848 | 33085 ft | 492 kts | 140° |
| 2026-05-07 18:11 | 42.87905 | 20.78301 | 33090 ft | 492 kts | 140° |
| 2026-05-07 18:11 | 42.82953 | 20.84744 | 33100 ft | 492 kts | 140° |
| 2026-05-07 18:12 | 42.78006 | 20.91184 | 33101 ft | 492 kts | 140° |
| 2026-05-07 18:12 | 42.73085 | 20.97565 | 33107 ft | 492 kts | 140° |
| 2026-05-07 18:13 | 42.68123 | 21.03979 | 33111 ft | 491 kts | 140° |
| 2026-05-07 18:13 | 42.63163 | 21.10377 | 33113 ft | 491 kts | 140° |
| 2026-05-07 18:14 | 42.58170 | 21.16798 | 33107 ft | 496 kts | 140° |
| 2026-05-07 18:14 | 42.53162 | 21.23232 | 33110 ft | 495 kts | 140° |
| 2026-05-07 18:15 | 42.48151 | 21.29653 | 33110 ft | 496 kts | 140° |
| 2026-05-07 18:15 | 42.43165 | 21.36027 | 33115 ft | 496 kts | 140° |
| 2026-05-07 18:16 | 42.38145 | 21.42428 | 33112 ft | 496 kts | 140° |
| 2026-05-07 18:16 | 42.33102 | 21.48845 | 33109 ft | 499 kts | 140° |
| 2026-05-07 18:17 | 42.28026 | 21.55287 | 33108 ft | 500 kts | 140° |
| 2026-05-07 18:17 | 42.22963 | 21.61721 | 33108 ft | 500 kts | 139° |
| 2026-05-07 18:18 | 42.18002 | 21.68299 | 33112 ft | 500 kts | 139° |
| 2026-05-07 18:18 | 42.13034 | 21.74893 | 33112 ft | 501 kts | 139° |
| 2026-05-07 18:19 | 42.08091 | 21.81441 | 33095 ft | 503 kts | 138° |
| 2026-05-07 18:19 | 42.03093 | 21.88038 | 33110 ft | 502 kts | 139° |
| 2026-05-07 18:20 | 41.98105 | 21.94609 | 33110 ft | 502 kts | 139° |
| 2026-05-07 18:20 | 41.93098 | 22.01183 | 33110 ft | 503 kts | 139° |
| 2026-05-07 18:21 | 41.88089 | 22.07751 | 33111 ft | 503 kts | 139° |
| 2026-05-07 18:21 | 41.83077 | 22.14317 | 33094 ft | 506 kts | 139° |
| 2026-05-07 18:22 | 41.78051 | 22.20880 | 33113 ft | 508 kts | 139° |
| 2026-05-07 18:22 | 41.72976 | 22.27488 | 33113 ft | 508 kts | 139° |
| 2026-05-07 18:23 | 41.67897 | 22.34090 | 33118 ft | 508 kts | 139° |
| 2026-05-07 18:23 | 41.62823 | 22.40676 | 33118 ft | 508 kts | 139° |
| 2026-05-07 18:24 | 41.57749 | 22.47245 | 33126 ft | 508 kts | 139° |
| 2026-05-07 18:24 | 41.52616 | 22.53867 | 33123 ft | 516 kts | 139° |
| 2026-05-07 18:25 | 41.47485 | 22.60469 | 33127 ft | 516 kts | 139° |
| 2026-05-07 18:25 | 41.42312 | 22.67114 | 33130 ft | 516 kts | 139° |
| 2026-05-07 18:26 | 41.37131 | 22.73763 | 33132 ft | 516 kts | 140° |
| 2026-05-07 18:26 | 41.32062 | 22.80550 | 33117 ft | 518 kts | 133° |
| 2026-05-07 18:27 | 41.27497 | 22.87996 | 33124 ft | 524 kts | 131° |
| 2026-05-07 18:27 | 41.22885 | 22.95532 | 33132 ft | 526 kts | 132° |
| 2026-05-07 18:28 | 41.18244 | 23.03061 | 33128 ft | 526 kts | 132° |
| 2026-05-07 18:28 | 41.13633 | 23.10512 | 33129 ft | 525 kts | 132° |
| 2026-05-07 18:29 | 41.09023 | 23.17980 | 33128 ft | 521 kts | 131° |
| 2026-05-07 18:29 | 41.04420 | 23.25435 | 33122 ft | 522 kts | 131° |
| 2026-05-07 18:30 | 40.99815 | 23.32855 | 33095 ft | 522 kts | 132° |
| 2026-05-07 18:30 | 40.95145 | 23.40357 | 33109 ft | 532 kts | 132° |
| 2026-05-07 18:31 | 40.90441 | 23.47901 | 33112 ft | 526 kts | 131° |
| 2026-05-07 18:31 | 40.85784 | 23.55340 | 33120 ft | 527 kts | 131° |
| 2026-05-07 18:32 | 40.81103 | 23.62792 | 33120 ft | 527 kts | 131° |
| 2026-05-07 18:32 | 40.76423 | 23.70238 | 33106 ft | 527 kts | 131° |
| 2026-05-07 18:33 | 40.71735 | 23.77679 | 33122 ft | 524 kts | 131° |
| 2026-05-07 18:33 | 40.67060 | 23.85084 | 33099 ft | 529 kts | 131° |
| 2026-05-07 18:34 | 40.62351 | 23.92519 | 33120 ft | 533 kts | 131° |
| 2026-05-07 18:34 | 40.57821 | 24.00250 | 33112 ft | 534 kts | 126° |
| 2026-05-07 18:35 | 40.53603 | 24.08310 | 33119 ft | 533 kts | 126° |
| 2026-05-07 18:35 | 40.49430 | 24.16269 | 33110 ft | 528 kts | 126° |
| 2026-05-07 18:36 | 40.45240 | 24.24203 | 33124 ft | 528 kts | 126° |
| 2026-05-07 18:36 | 40.41085 | 24.32086 | 33110 ft | 528 kts | 126° |
| 2026-05-07 18:37 | 40.36897 | 24.40006 | 33126 ft | 526 kts | 126° |
| 2026-05-07 18:37 | 40.32743 | 24.47833 | 33108 ft | 526 kts | 126° |
| 2026-05-07 18:38 | 40.28536 | 24.55748 | 33122 ft | 530 kts | 126° |
| 2026-05-07 18:38 | 40.24313 | 24.63657 | 33119 ft | 530 kts | 126° |
| 2026-05-07 18:39 | 40.20089 | 24.71564 | 33123 ft | 530 kts | 126° |
| 2026-05-07 18:39 | 40.15856 | 24.79459 | 33120 ft | 530 kts | 126° |
| 2026-05-07 18:40 | 40.11616 | 24.87351 | 33122 ft | 530 kts | 126° |
| 2026-05-07 18:40 | 40.07365 | 24.95239 | 33124 ft | 531 kts | 126° |
| 2026-05-07 18:41 | 40.03829 | 25.01784 | 33135 ft | 529 kts | 126° |
| 2026-05-07 18:41 | 40.01058 | 25.06914 | 33117 ft | 518 kts | 126° |
| 2026-05-07 18:41 | 39.98983 | 25.10743 | 33119 ft | 517 kts | 126° |
| 2026-05-07 18:42 | 39.95506 | 25.17146 | 33108 ft | 516 kts | 126° |
| 2026-05-07 18:42 | 39.91177 | 25.24513 | 33099 ft | 514 kts | 137° |
| 2026-05-07 18:43 | 39.85859 | 25.30708 | 33105 ft | 512 kts | 142° |
| 2026-05-07 18:43 | 39.80466 | 25.36761 | 33127 ft | 508 kts | 141° |
| 2026-05-07 18:44 | 39.75129 | 25.42798 | 33134 ft | 508 kts | 141° |
| 2026-05-07 18:44 | 39.69784 | 25.48851 | 33115 ft | 512 kts | 141° |
| 2026-05-07 18:45 | 39.64399 | 25.54928 | 33133 ft | 517 kts | 141° |
| 2026-05-07 18:45 | 39.58953 | 25.61066 | 33131 ft | 518 kts | 141° |
| 2026-05-07 18:46 | 39.53521 | 25.67168 | 33135 ft | 511 kts | 141° |
| 2026-05-07 18:46 | 39.48162 | 25.73172 | 33136 ft | 509 kts | 141° |
| 2026-05-07 18:47 | 39.42798 | 25.79176 | 33122 ft | 510 kts | 141° |
| 2026-05-07 18:47 | 39.37400 | 25.85199 | 33138 ft | 517 kts | 141° |
| 2026-05-07 18:48 | 39.31946 | 25.91272 | 33138 ft | 518 kts | 141° |
| 2026-05-07 18:48 | 39.26476 | 25.97318 | 33142 ft | 513 kts | 142° |
| 2026-05-07 18:49 | 39.21004 | 26.03161 | 33143 ft | 509 kts | 142° |
| 2026-05-07 18:49 | 39.15546 | 26.09001 | 33149 ft | 510 kts | 142° |
| 2026-05-07 18:50 | 39.10028 | 26.14907 | 33144 ft | 519 kts | 142° |
| 2026-05-07 18:50 | 39.04491 | 26.20793 | 33144 ft | 520 kts | 142° |
| 2026-05-07 18:51 | 38.98915 | 26.26712 | 33148 ft | 518 kts | 142° |
| 2026-05-07 18:51 | 38.93443 | 26.32566 | 33140 ft | 509 kts | 142° |
| 2026-05-07 18:52 | 38.87986 | 26.38388 | 33142 ft | 509 kts | 142° |
| 2026-05-07 18:52 | 38.85432 | 26.41544 | 33021 ft | 506 kts | 132° |
| 2026-05-07 18:52 | 38.83397 | 26.45230 | 32001 ft | 510 kts | 117° |
| 2026-05-07 18:52 | 38.82083 | 26.49437 | 31127 ft | 508 kts | 105° |
| 2026-05-07 18:53 | 38.81242 | 26.53816 | 30335 ft | 503 kts | 102° |
| 2026-05-07 18:53 | 38.80457 | 26.58165 | 29265 ft | 498 kts | 103° |
| 2026-05-07 18:53 | 38.79657 | 26.62470 | 28070 ft | 495 kts | 103° |
| 2026-05-07 18:53 | 38.78846 | 26.66749 | 26888 ft | 493 kts | 103° |
| 2026-05-07 18:54 | 38.78043 | 26.70942 | 25957 ft | 488 kts | 103° |
| 2026-05-07 18:54 | 38.77228 | 26.75179 | 25203 ft | 478 kts | 103° |
| 2026-05-07 18:54 | 38.76449 | 26.79214 | 24525 ft | 468 kts | 103° |
| 2026-05-07 18:54 | 38.75670 | 26.83238 | 23879 ft | 461 kts | 103° |
| 2026-05-07 18:55 | 38.74900 | 26.87194 | 23163 ft | 454 kts | 103° |
| 2026-05-07 18:55 | 38.74145 | 26.91063 | 22640 ft | 441 kts | 103° |
| 2026-05-07 18:55 | 38.73296 | 26.94778 | 21919 ft | 433 kts | 112° |
| 2026-05-07 18:55 | 38.71774 | 26.98102 | 20846 ft | 435 kts | 129° |
| 2026-05-07 18:56 | 38.69660 | 27.00899 | 19734 ft | 441 kts | 138° |
| 2026-05-07 18:56 | 38.67379 | 27.03597 | 18692 ft | 449 kts | 138° |
| 2026-05-07 18:56 | 38.65096 | 27.06322 | 17916 ft | 447 kts | 138° |
| 2026-05-07 18:56 | 38.62861 | 27.09040 | 17244 ft | 441 kts | 137° |
| 2026-05-07 18:57 | 38.60658 | 27.11746 | 16559 ft | 436 kts | 137° |
| 2026-05-07 18:57 | 38.58491 | 27.14421 | 15904 ft | 431 kts | 137° |
| 2026-05-07 18:57 | 38.56334 | 27.17044 | 15302 ft | 425 kts | 140° |
| 2026-05-07 18:57 | 38.53905 | 27.19118 | 14673 ft | 417 kts | 156° |
| 2026-05-07 18:58 | 38.51182 | 27.20229 | 14049 ft | 408 kts | 169° |
| 2026-05-07 18:58 | 38.48424 | 27.20967 | 13405 ft | 403 kts | 171° |
| 2026-05-07 18:58 | 38.45691 | 27.21700 | 12738 ft | 398 kts | 169° |
| 2026-05-07 18:58 | 38.43020 | 27.22458 | 12378 ft | 386 kts | 169° |
| 2026-05-07 18:59 | 38.40447 | 27.23213 | 12155 ft | 372 kts | 168° |
| 2026-05-07 18:59 | 38.38005 | 27.23940 | 11990 ft | 358 kts | 168° |
| 2026-05-07 18:59 | 38.35625 | 27.24655 | 11836 ft | 344 kts | 168° |
| 2026-05-07 18:59 | 38.33329 | 27.25345 | 11691 ft | 331 kts | 168° |
| 2026-05-07 19:00 | 38.31129 | 27.26004 | 11546 ft | 319 kts | 168° |
| 2026-05-07 19:00 | 38.29012 | 27.26639 | 11404 ft | 306 kts | 168° |
| 2026-05-07 19:00 | 38.28100 | 27.26912 | 11344 ft | 300 kts | 168° |
| 2026-05-07 19:00 | 38.27703 | 27.27031 | 11320 ft | 297 kts | 168° |
| 2026-05-07 19:01 | 38.25734 | 27.27620 | 11169 ft | 285 kts | 168° |
| 2026-05-07 19:01 | 38.23809 | 27.28195 | 10785 ft | 283 kts | 168° |
| 2026-05-07 19:01 | 38.21893 | 27.28768 | 10372 ft | 282 kts | 167° |
| 2026-05-07 19:01 | 38.19988 | 27.29337 | 9977 ft | 280 kts | 167° |
| 2026-05-07 19:02 | 38.18093 | 27.29902 | 9535 ft | 278 kts | 167° |
| 2026-05-07 19:02 | 38.16221 | 27.30460 | 9177 ft | 275 kts | 167° |
| 2026-05-07 19:02 | 38.14364 | 27.31016 | 8765 ft | 273 kts | 167° |
| 2026-05-07 19:02 | 38.12516 | 27.31569 | 8374 ft | 271 kts | 167° |
| 2026-05-07 19:03 | 38.10685 | 27.32085 | 8045 ft | 267 kts | 172° |
| 2026-05-07 19:03 | 38.08917 | 27.31962 | 7780 ft | 254 kts | 200° |
| 2026-05-07 19:03 | 38.07485 | 27.30733 | 7268 ft | 250 kts | 234° |
| 2026-05-07 19:03 | 38.06741 | 27.28768 | 6729 ft | 248 kts | 257° |
| 2026-05-07 19:04 | 38.06401 | 27.26642 | 6341 ft | 242 kts | 260° |
| 2026-05-07 19:04 | 38.06228 | 27.24575 | 6064 ft | 230 kts | 277° |
| 2026-05-07 19:04 | 38.06772 | 27.22770 | 5739 ft | 218 kts | 310° |
| 2026-05-07 19:04 | 38.08016 | 27.21722 | 5300 ft | 216 kts | 341° |
| 2026-05-07 19:05 | 38.09456 | 27.21312 | 4939 ft | 203 kts | 349° |
| 2026-05-07 19:05 | 38.10778 | 27.20972 | 4702 ft | 184 kts | 348° |
| 2026-05-07 19:05 | 38.11931 | 27.20658 | 4527 ft | 151 kts | 347° |
| 2026-05-07 19:05 | 38.12939 | 27.20372 | 4026 ft | 146 kts | 346° |
| 2026-05-07 19:06 | 38.13913 | 27.20084 | 3730 ft | 143 kts | 346° |
| 2026-05-07 19:06 | 38.15890 | 27.19501 | 3407 ft | 147 kts | 346° |
| 2026-05-07 19:06 | 38.16886 | 27.19206 | 3261 ft | 147 kts | 346° |
| 2026-05-07 19:07 | 38.17881 | 27.18911 | 3113 ft | 146 kts | 345° |
| 2026-05-07 19:07 | 38.18873 | 27.18634 | 2899 ft | 145 kts | 346° |
| 2026-05-07 19:07 | 38.19860 | 27.18347 | 2616 ft | 145 kts | 344° |
| 2026-05-07 19:07 | 38.20834 | 27.18008 | 2317 ft | 147 kts | 343° |
| 2026-05-07 19:08 | 38.21824 | 27.17694 | 1977 ft | 145 kts | 345° |
| 2026-05-07 19:08 | 38.22788 | 27.17421 | 1580 ft | 142 kts | 345° |
| 2026-05-07 19:08 | 38.23761 | 27.17133 | 1241 ft | 145 kts | 346° |
| 2026-05-07 19:08 | 38.24746 | 27.16828 | 1046 ft | 147 kts | 346° |
| 2026-05-07 19:09 | 38.25742 | 27.16522 | 862 ft | 147 kts | 348° |
| 2026-05-07 19:09 | 38.26732 | 27.16252 | 677 ft | 147 kts | 344° |
| 2026-05-07 19:09 | 38.27705 | 27.15943 | 491 ft | 141 kts | 346° |
| 2026-05-07 19:09 | 38.28609 | 27.15670 | 425 ft | 117 kts | 347° |
| 2026-05-07 19:10 | 38.29231 | 27.15482 | 421 ft | 67 kts | 347° |
| 2026-05-07 19:10 | 38.29528 | 27.15389 | 421 ft | 40 kts | 347° |
| 2026-05-07 19:10 | 38.29801 | 27.15310 | 418 ft | 41 kts | 346° |
| 2026-05-07 19:10 | 38.29979 | 27.15245 | 418 ft | 18 kts | 303° |
| 2026-05-07 19:11 | 38.29963 | 27.15092 | 410 ft | 18 kts | 253° |
| 2026-05-07 19:11 | 38.29943 | 27.14984 | 417 ft | 3 kts | 255° |
| 2026-05-07 19:11 | 38.29919 | 27.14965 | 417 ft | 7 kts | 190° |
| 2026-05-07 19:11 | 38.29858 | 27.14975 | 412 ft | 11 kts | 167° |
| 2026-05-07 19:12 | 38.29777 | 27.14999 | 410 ft | 13 kts | 167° |
| 2026-05-07 19:12 | 38.29683 | 27.15027 | 413 ft | 15 kts | 167° |
| 2026-05-07 19:12 | 38.29576 | 27.15060 | 415 ft | 17 kts | 166° |
| 2026-05-07 19:12 | 38.29457 | 27.15095 | 411 ft | 18 kts | 167° |
| 2026-05-07 19:13 | 38.29365 | 27.15091 | 409 ft | 12 kts | 246° |
| 2026-05-07 19:13 | 38.29355 | 27.15046 | 414 ft | 2 kts | 256° |
| 2026-05-07 19:13 | 38.29354 | 27.15038 | 415 ft | 0 kts | 257° |